Huvudsida
METAR-TAF:

METAR-TAF

Flygplatser :

Aghajari, Iran

latitud: 30-46N, longitud: 049-40E, höjd: 29 m

Aktuellt väderrapport

Denna rapport gjordes för 2 timmar och 31 minuter sedan, klockan 17:00 UTC
Vind 4 kt från nord/nordost
Temperatur 23°C
Fuktighet 27%
Tryck 1016 hPa
Sikt 10 km eller mer
Inga moln under 1 500 m eller inga cumulonimbus

METAR: OIAG 111700Z 03004KT CAVOK 23/03 Q1016

Tid: 23:01 (19:31 UTC)


TAF: saknas

Aktuella väderrapporter och prognoser från 4000 flygplatser (METAR- och TAF-rapporter).

De tillgängliga stationerna syns som gula och röda prickar på kartan.

För musen över prickarna för att se namnen på stationerna.

Klicka sedan för att få väderrapporter och prognoser.

För att ändra kartan: Klicka på de gröna knapparna med ett svart kors på för att zooma in; den gröna knappen med ett streck på för att zooma ut; eller på de gröna pilarna för angränsande kartor.


METAR-TAF: